createdAt,value
2022-10-04T00:02:27.849Z,101427.34
2022-10-04T00:05:04.156Z,101433.41
2022-10-04T00:07:36.176Z,101437.78
2022-10-04T00:10:08.880Z,101437.66
2022-10-04T00:12:40.807Z,101434.19
2022-10-04T00:15:22.039Z,101427.06
2022-10-04T00:18:22.043Z,101432.22
2022-10-04T00:21:04.166Z,101424.28
2022-10-04T00:23:48.311Z,101423.56
2022-10-04T00:26:53.658Z,101416.66
2022-10-04T00:29:42.125Z,101414.00
2022-10-04T00:32:33.511Z,101414.09
2022-10-04T00:35:05.744Z,101407.00
2022-10-04T00:37:59.006Z,101399.09
2022-10-04T00:40:30.787Z,101404.38
2022-10-04T00:43:03.111Z,101386.81
2022-10-04T00:45:37.250Z,101390.28
2022-10-04T00:48:31.220Z,101381.63
2022-10-04T00:51:07.957Z,101375.56
2022-10-04T00:53:43.295Z,101385.09
2022-10-04T00:56:16.259Z,101379.00
2022-10-04T00:58:51.390Z,101383.53
2022-10-04T01:01:24.777Z,101390.59
2022-10-04T01:03:56.623Z,101396.66
2022-10-04T01:06:29.387Z,101401.09
2022-10-04T01:09:08.059Z,101403.78
2022-10-04T01:11:40.659Z,101406.47
2022-10-04T01:14:14.606Z,101411.72
2022-10-04T01:16:44.688Z,101403.78
2022-10-04T01:19:31.906Z,101390.53
2022-10-04T01:22:13.312Z,101386.19
2022-10-04T01:24:46.879Z,101379.16
2022-10-04T01:27:38.568Z,101381.78
2022-10-04T01:30:10.994Z,101371.28
2022-10-04T01:32:41.432Z,101376.59
2022-10-04T01:35:12.929Z,101373.94
2022-10-04T01:37:42.846Z,101367.81
2022-10-04T01:40:15.172Z,101360.81
2022-10-04T01:42:48.835Z,101356.41
2022-10-04T01:45:24.161Z,101347.69
2022-10-04T01:47:57.452Z,101346.78
2022-10-04T01:50:31.813Z,101348.44
2022-10-04T01:53:04.264Z,101343.22
2022-10-04T01:55:38.099Z,101337.13
2022-10-04T01:58:15.680Z,101342.44
2022-10-04T02:00:51.522Z,101344.31
2022-10-04T02:03:24.966Z,101351.28
2022-10-04T02:05:57.269Z,101345.22
2022-10-04T02:08:29.439Z,101347.00
2022-10-04T02:11:02.643Z,101341.63
2022-10-04T02:13:37.153Z,101340.06
2022-10-04T02:16:07.357Z,101337.50
2022-10-04T02:18:40.256Z,101334.97
2022-10-04T02:21:10.572Z,101326.16
2022-10-04T02:23:40.508Z,101327.03
2022-10-04T02:26:14.180Z,101322.63
2022-10-04T02:28:43.820Z,101319.19
2022-10-04T02:31:26.499Z,101311.28
2022-10-04T02:33:59.556Z,101296.44
2022-10-04T02:36:30.840Z,101297.22
2022-10-04T02:39:04.387Z,101296.31
2022-10-04T02:41:40.416Z,101278.78
2022-10-04T02:44:14.986Z,101283.97
2022-10-04T02:46:48.639Z,101289.25
2022-10-04T02:49:23.209Z,101292.88
2022-10-04T02:51:55.201Z,101284.28
2022-10-04T02:54:30.713Z,101296.72
2022-10-04T02:57:03.556Z,101286.91
2022-10-04T02:59:35.485Z,101294.75
2022-10-04T03:02:05.553Z,101283.31
2022-10-04T03:04:36.920Z,101280.63
2022-10-04T03:07:09.515Z,101292.94
2022-10-04T03:09:40.178Z,101286.75
2022-10-04T03:12:13.830Z,101297.38
2022-10-04T03:14:43.509Z,101289.53
2022-10-04T03:17:13.228Z,101291.25
2022-10-04T03:19:42.898Z,101283.38
2022-10-04T03:22:14.669Z,101277.28
2022-10-04T03:24:49.163Z,101273.81
2022-10-04T03:27:25.036Z,101272.03
2022-10-04T03:29:59.054Z,101266.78
2022-10-04T03:32:30.481Z,101269.38
2022-10-04T03:35:01.435Z,101277.25
2022-10-04T03:37:32.679Z,101268.44
2022-10-04T03:40:02.866Z,101271.94
2022-10-04T03:42:37.345Z,101268.44
2022-10-04T03:45:11.101Z,101262.28
2022-10-04T03:47:42.457Z,101263.94
2022-10-04T03:50:18.719Z,101268.34
2022-10-04T03:52:54.020Z,101262.19
2022-10-04T03:55:24.458Z,101259.53
2022-10-04T03:57:56.656Z,101252.50
2022-10-04T04:00:26.252Z,101258.63
2022-10-04T04:02:59.316Z,101251.59
2022-10-04T04:05:32.105Z,101239.22
2022-10-04T04:08:07.237Z,101250.53
2022-10-04T04:10:39.800Z,101243.56
2022-10-04T04:13:21.066Z,101244.41
2022-10-04T04:15:50.719Z,101250.50
2022-10-04T04:18:25.849Z,101244.31
2022-10-04T04:20:59.428Z,101232.84
2022-10-04T04:23:33.177Z,101236.31
2022-10-04T04:26:16.895Z,101235.25
2022-10-04T04:28:51.808Z,101238.00
2022-10-04T04:31:23.837Z,101233.63
2022-10-04T04:33:59.310Z,101232.84
2022-10-04T04:36:29.986Z,101238.09
2022-10-04T04:39:22.608Z,101235.59
2022-10-04T04:41:52.342Z,101240.03
2022-10-04T04:44:24.826Z,101246.19
2022-10-04T04:47:00.411Z,101233.03
2022-10-04T04:49:32.614Z,101247.91
2022-10-04T04:52:02.467Z,101231.31
2022-10-04T04:54:32.043Z,101233.91
2022-10-04T04:57:01.624Z,101222.50
2022-10-04T04:59:34.591Z,101210.28
2022-10-04T05:02:04.261Z,101198.88
2022-10-04T05:04:33.849Z,101192.72
2022-10-04T05:07:06.371Z,101198.06
2022-10-04T05:09:38.523Z,101192.91
2022-10-04T05:12:11.605Z,101203.44
2022-10-04T05:14:49.030Z,101201.72
2022-10-04T05:17:22.923Z,101204.44
2022-10-04T05:19:53.649Z,101194.81
2022-10-04T05:22:25.479Z,101192.97
2022-10-04T05:24:56.584Z,101200.84
2022-10-04T05:27:30.373Z,101206.06
2022-10-04T05:30:08.126Z,101197.06
2022-10-04T05:32:46.372Z,101205.41
2022-10-04T05:35:20.570Z,101197.84
2022-10-04T05:38:05.295Z,101194.22
2022-10-04T05:40:41.696Z,101202.09
2022-10-04T05:43:25.421Z,101209.84
2022-10-04T05:46:25.358Z,101209.75
2022-10-04T05:48:57.172Z,101205.44
2022-10-04T05:51:27.831Z,101210.81
2022-10-04T05:53:58.266Z,101207.31
2022-10-04T05:56:51.771Z,101202.66
2022-10-04T05:59:49.849Z,101206.09
2022-10-04T06:02:31.358Z,101211.28
2022-10-04T06:05:11.906Z,101211.38
2022-10-04T06:07:44.765Z,101204.38
2022-10-04T06:10:37.840Z,101200.84
2022-10-04T06:13:13.086Z,101204.44
2022-10-04T06:15:59.667Z,101199.97
2022-10-04T06:18:46.718Z,101195.56
2022-10-04T06:21:23.444Z,101200.78
2022-10-04T06:23:57.773Z,101201.69
2022-10-04T06:26:30.327Z,101209.59
2022-10-04T06:29:02.648Z,101202.56
2022-10-04T06:31:57.380Z,101207.81
2022-10-04T06:35:06.774Z,101196.31
2022-10-04T06:37:48.171Z,101198.84
2022-10-04T06:40:34.337Z,101191.75
2022-10-04T06:43:18.251Z,101190.69
2022-10-04T06:45:55.931Z,101194.69
2022-10-04T06:48:51.265Z,101201.84
2022-10-04T06:51:29.562Z,101200.81
2022-10-04T06:54:05.673Z,101200.69
2022-10-04T06:56:50.114Z,101192.59
2022-10-04T06:59:37.141Z,101199.50
2022-10-04T07:02:10.681Z,101209.75
2022-10-04T07:05:09.438Z,101218.19
2022-10-04T07:07:39.346Z,101201.38
2022-10-04T07:10:26.848Z,101206.47
2022-10-04T07:13:06.836Z,101208.91
2022-10-04T07:15:44.651Z,101208.72
2022-10-04T07:18:18.621Z,101210.41
2022-10-04T07:20:48.991Z,101216.44
2022-10-04T07:23:28.681Z,101218.81
2022-10-04T07:26:01.611Z,101218.56
2022-10-04T07:28:46.413Z,101222.78
2022-10-04T07:31:17.829Z,101218.25
2022-10-04T07:33:49.902Z,101215.41
2022-10-04T07:36:22.997Z,101210.88
2022-10-04T07:39:00.249Z,101213.28
2022-10-04T07:41:32.522Z,101215.75
2022-10-04T07:44:04.779Z,101213.88
2022-10-04T07:46:52.813Z,101221.66
2022-10-04T07:49:23.962Z,101235.44
2022-10-04T07:52:06.215Z,101244.06
2022-10-04T07:54:42.034Z,101236.03
2022-10-04T07:57:17.400Z,101235.91
2022-10-04T07:59:52.773Z,101226.06
2022-10-04T08:02:31.645Z,101234.66
2022-10-04T08:05:08.032Z,101226.78
2022-10-04T08:07:49.685Z,101216.09
2022-10-04T08:10:27.100Z,101218.53
2022-10-04T08:13:00.939Z,101220.97
2022-10-04T08:15:39.346Z,101211.06
2022-10-04T08:18:20.675Z,101216.03
2022-10-04T08:20:51.764Z,101223.00
2022-10-04T08:23:37.026Z,101218.38
2022-10-04T08:26:20.131Z,101218.88
2022-10-04T08:29:08.564Z,101210.75
2022-10-04T08:31:55.857Z,101217.47
2022-10-04T08:34:34.646Z,101215.59
2022-10-04T08:37:11.890Z,101214.59
2022-10-04T08:39:53.225Z,101210.94
2022-10-04T08:42:42.041Z,101215.84
2022-10-04T08:45:26.920Z,101207.66
2022-10-04T08:48:33.005Z,101214.13
2022-10-04T08:51:47.409Z,101215.66
2022-10-04T08:54:42.650Z,101219.53
2022-10-04T08:57:38.147Z,101218.38
2022-10-04T09:00:16.589Z,101209.06
2022-10-04T09:03:16.722Z,101214.03
2022-10-04T09:06:17.860Z,101216.97
2022-10-04T09:09:19.761Z,101223.31
2022-10-04T09:12:01.067Z,101210.28
2022-10-04T09:14:45.831Z,101212.47
2022-10-04T09:17:23.169Z,101202.38
2022-10-04T09:20:13.926Z,101204.25
2022-10-04T09:22:57.088Z,101194.84
2022-10-04T09:25:47.396Z,101191.13
2022-10-04T09:29:04.934Z,101183.59
2022-10-04T09:32:10.440Z,101178.63
2022-10-04T09:34:49.845Z,101179.84
2022-10-04T09:37:32.985Z,101168.66
2022-10-04T09:40:31.985Z,101174.38
2022-10-04T09:43:16.333Z,101165.03
2022-10-04T09:45:55.226Z,101159.44
2022-10-04T09:48:40.623Z,101171.03
2022-10-04T09:51:19.855Z,101168.56
2022-10-04T09:54:14.982Z,101172.69
2022-10-04T09:56:53.345Z,101173.88
2022-10-04T09:59:42.478Z,101170.00
2022-10-04T10:02:56.424Z,101168.66
2022-10-04T10:05:33.523Z,101150.47
2022-10-04T10:08:12.207Z,101154.44
2022-10-04T10:10:59.424Z,101153.25
2022-10-04T10:13:59.523Z,101160.44
2022-10-04T10:16:42.010Z,101145.88
2022-10-04T10:19:45.286Z,101146.31
2022-10-04T10:22:31.112Z,101154.91
2022-10-04T10:25:18.774Z,101142.22
2022-10-04T10:28:07.934Z,101147.13
2022-10-04T10:30:49.872Z,101146.69
2022-10-04T10:33:42.542Z,101150.81
2022-10-04T10:36:24.492Z,101144.38
2022-10-04T10:39:06.106Z,101146.69
2022-10-04T10:41:44.873Z,101144.75
2022-10-04T10:44:23.575Z,101144.56
2022-10-04T10:47:01.663Z,101138.84
2022-10-04T10:49:44.353Z,101141.09
2022-10-04T10:52:43.517Z,101147.78
2022-10-04T10:55:32.365Z,101144.50
2022-10-04T10:58:34.085Z,101145.78
2022-10-04T11:01:18.808Z,101149.91
2022-10-04T11:04:16.512Z,101147.16
2022-10-04T11:07:14.111Z,101138.81
2022-10-04T11:10:16.293Z,101125.81
2022-10-04T11:13:13.883Z,101121.09
2022-10-04T11:15:53.586Z,101119.81
2022-10-04T11:18:49.681Z,101114.19
2022-10-04T11:21:50.653Z,101116.75
2022-10-04T11:24:45.032Z,101118.97
2022-10-04T11:27:20.634Z,101128.66
2022-10-04T11:30:08.625Z,101117.56
2022-10-04T11:33:12.977Z,101110.34
2022-10-04T11:36:00.342Z,101099.50
2022-10-04T11:38:48.839Z,101108.16
2022-10-04T11:41:23.254Z,101102.47
2022-10-04T11:44:16.423Z,101093.06
2022-10-04T11:46:52.441Z,101095.38
2022-10-04T11:49:35.589Z,101099.59
2022-10-04T11:52:34.346Z,101090.44
2022-10-04T11:55:54.386Z,101084.16
2022-10-04T11:58:32.793Z,101080.34
2022-10-04T12:01:22.673Z,101076.53
2022-10-04T12:04:22.226Z,101076.75
2022-10-04T12:07:08.355Z,101077.97
2022-10-04T12:09:44.040Z,101087.47
2022-10-04T12:12:41.001Z,101086.00
2022-10-04T12:15:52.045Z,101082.31
2022-10-04T12:18:41.864Z,101084.78
2022-10-04T12:24:13.138Z,101065.50
2022-10-04T12:27:02.875Z,101062.47
2022-10-04T12:30:10.547Z,101058.72
2022-10-04T12:32:45.512Z,101057.59
2022-10-04T12:35:25.276Z,101045.84
2022-10-04T12:38:16.339Z,101049.16
2022-10-04T12:40:51.388Z,101051.94
2022-10-04T12:43:28.104Z,101045.75
2022-10-04T12:46:07.783Z,101049.38
2022-10-04T12:48:48.278Z,101037.44
2022-10-04T12:51:39.479Z,101026.47
2022-10-04T12:54:24.024Z,101027.88
2022-10-04T12:57:01.884Z,101023.19
2022-10-04T12:59:43.934Z,101034.84
2022-10-04T13:02:25.556Z,101017.47
2022-10-04T13:04:57.561Z,101011.84
2022-10-04T13:07:51.796Z,101009.06
2022-10-04T13:10:33.211Z,101008.84
2022-10-04T13:13:30.048Z,101007.69
2022-10-04T13:19:08.611Z,101005.13
2022-10-04T13:22:04.874Z,101015.81
2022-10-04T13:24:55.150Z,101011.97
2022-10-04T13:27:32.473Z,101019.88
2022-10-04T13:30:04.803Z,101006.41
2022-10-04T13:32:39.259Z,100995.44
2022-10-04T13:35:20.497Z,100985.94
2022-10-04T13:38:02.486Z,100981.97
2022-10-04T13:40:47.330Z,100988.06
2022-10-04T13:43:36.616Z,100984.53
2022-10-04T13:46:14.663Z,100982.72
2022-10-04T13:49:07.543Z,100974.50
2022-10-04T13:52:10.068Z,100970.88
2022-10-04T13:54:56.048Z,100967.25
2022-10-04T13:57:30.149Z,100966.38
2022-10-04T14:00:07.653Z,100965.31
2022-10-04T14:03:04.885Z,100970.41
2022-10-04T14:06:00.933Z,100965.97
2022-10-04T14:08:59.193Z,100960.63
2022-10-04T14:12:09.349Z,100957.84
2022-10-04T14:15:17.576Z,100961.03
2022-10-04T14:18:12.307Z,100959.84
2022-10-04T14:21:19.151Z,100958.03
2022-10-04T14:24:12.316Z,100967.63
2022-10-04T14:27:17.272Z,100965.72
2022-10-04T14:30:12.781Z,100953.13
2022-10-04T14:33:01.448Z,100963.81
2022-10-04T14:35:35.603Z,100966.34
2022-10-04T14:38:41.734Z,100950.66
2022-10-04T14:41:39.112Z,100951.41
2022-10-04T14:44:28.844Z,100944.13
2022-10-04T14:47:06.435Z,100943.28
2022-10-04T14:49:51.707Z,100941.22
2022-10-04T14:52:35.019Z,100928.00
2022-10-04T14:55:15.295Z,100924.34
2022-10-04T14:57:58.299Z,100920.31
2022-10-04T15:00:31.356Z,100917.75
2022-10-04T15:03:20.263Z,100931.44
2022-10-04T15:06:12.869Z,100931.03
2022-10-04T15:09:09.658Z,100940.31
2022-10-04T15:12:21.570Z,100933.50
2022-10-04T15:14:46.464Z,100930.16
2022-10-04T15:17:28.622Z,100934.03
2022-10-04T15:20:08.234Z,100928.81
2022-10-04T15:22:43.886Z,100926.44
2022-10-04T15:25:43.760Z,100927.53
2022-10-04T15:28:29.421Z,100924.06
2022-10-04T15:31:04.661Z,100934.97
2022-10-04T15:33:41.806Z,100928.16
2022-10-04T15:36:28.664Z,100923.13
2022-10-04T15:39:03.220Z,100928.69
2022-10-04T15:41:41.651Z,100929.84
2022-10-04T15:44:31.581Z,100937.41
2022-10-04T15:47:12.498Z,100939.56
2022-10-04T15:49:54.201Z,100941.66
2022-10-04T15:52:45.486Z,100932.13
2022-10-04T15:55:28.477Z,100930.53
2022-10-04T15:58:19.873Z,100936.28
2022-10-04T16:01:01.399Z,100938.31
2022-10-04T16:03:40.820Z,100935.09
2022-10-04T16:06:13.938Z,100939.13
2022-10-04T16:08:59.205Z,100932.50
2022-10-04T16:11:37.141Z,100943.69
2022-10-04T16:14:23.380Z,100946.84
2022-10-04T16:17:05.708Z,100948.38
2022-10-04T16:19:55.286Z,100942.69
2022-10-04T16:22:31.242Z,100941.38
2022-10-04T16:25:01.979Z,100937.22
2022-10-04T16:27:48.527Z,100926.09
2022-10-04T16:30:28.382Z,100943.78
2022-10-04T16:33:27.483Z,100943.63
2022-10-04T16:36:15.005Z,100936.84
2022-10-04T16:39:10.279Z,100935.72
2022-10-04T16:41:44.734Z,100932.59
2022-10-04T16:44:32.100Z,100922.81
2022-10-04T16:47:07.043Z,100923.59
2022-10-04T16:49:41.825Z,100919.59
2022-10-04T16:52:23.445Z,100923.59
2022-10-04T16:55:06.941Z,100930.13
2022-10-04T16:57:36.504Z,100935.06
2022-10-04T17:00:35.408Z,100925.84
2022-10-04T17:03:19.939Z,100917.66
2022-10-04T17:06:05.069Z,100930.66
2022-10-04T17:08:50.615Z,100927.56
2022-10-04T17:11:35.780Z,100940.25
2022-10-04T17:14:09.874Z,100929.22
2022-10-04T17:16:41.057Z,100930.63
2022-10-04T17:19:24.855Z,100924.81
2022-10-04T17:22:05.848Z,100927.91
2022-10-04T17:24:43.871Z,100932.72
2022-10-04T17:27:29.853Z,100939.31
2022-10-04T17:30:07.872Z,100930.00
2022-10-04T17:32:47.410Z,100934.38
2022-10-04T17:35:59.289Z,100937.09
2022-10-04T17:38:35.201Z,100947.22
2022-10-04T17:41:11.296Z,100950.31
2022-10-04T17:43:46.404Z,100941.13
2022-10-04T17:46:20.397Z,100939.69
2022-10-04T17:49:05.191Z,100946.28
2022-10-04T17:52:12.906Z,100942.34
2022-10-04T17:54:59.855Z,100941.06
2022-10-04T17:57:34.182Z,100936.88
2022-10-04T18:00:11.777Z,100939.19
2022-10-04T18:03:09.412Z,100943.78
2022-10-04T18:05:50.631Z,100942.66
2022-10-04T18:08:27.268Z,100950.84
2022-10-04T18:11:00.200Z,100943.91
2022-10-04T18:13:34.585Z,100945.00
2022-10-04T18:16:10.125Z,100953.53
2022-10-04T18:18:43.750Z,100965.25
2022-10-04T18:21:27.305Z,100968.97
2022-10-04T18:24:05.278Z,100970.22
2022-10-04T18:26:36.081Z,100979.28
2022-10-04T18:29:09.390Z,100979.50
2022-10-04T18:31:40.682Z,100974.50
2022-10-04T18:34:22.059Z,100969.38
2022-10-04T18:37:06.500Z,100967.00
2022-10-04T18:39:53.126Z,100964.63
2022-10-04T18:42:30.598Z,100961.50
2022-10-04T18:45:02.571Z,100960.69
2022-10-04T18:47:37.069Z,100965.44
2022-10-04T18:50:18.900Z,100968.31
2022-10-04T18:52:57.861Z,100972.97
2022-10-04T18:55:36.854Z,100973.19
2022-10-04T18:58:25.178Z,100978.56
2022-10-04T19:01:12.263Z,100986.91
2022-10-04T19:03:47.052Z,100985.44
2022-10-04T19:06:19.697Z,100988.28
2022-10-04T19:08:55.943Z,100996.59
2022-10-04T19:11:32.232Z,100985.38
2022-10-04T19:14:08.424Z,100982.09
2022-10-04T19:16:44.707Z,100978.59
2022-10-04T19:19:34.355Z,100978.78
2022-10-04T19:22:11.107Z,100973.91
2022-10-04T19:24:58.876Z,100971.34
2022-10-04T19:27:36.438Z,100966.06
2022-10-04T19:30:15.456Z,100967.00
2022-10-04T19:33:04.642Z,100975.94
2022-10-04T19:35:48.637Z,100974.34
2022-10-04T19:38:30.207Z,100970.16
2022-10-04T19:41:06.601Z,100964.91
2022-10-04T19:43:44.645Z,100979.22
2022-10-04T19:46:19.992Z,100961.63
2022-10-04T19:48:52.420Z,100968.75
2022-10-04T19:51:28.476Z,100971.47
2022-10-04T19:54:03.869Z,100982.19
2022-10-04T19:56:35.867Z,100984.06
2022-10-04T19:59:10.385Z,100991.19
2022-10-04T20:01:39.912Z,100987.75
2022-10-04T20:04:27.108Z,100976.47
2022-10-04T20:06:58.618Z,100981.75
2022-10-04T20:09:35.399Z,100990.75
2022-10-04T20:12:05.301Z,100990.81
2022-10-04T20:15:12.972Z,100986.47
2022-10-04T20:17:46.206Z,100984.81
2022-10-04T20:20:18.780Z,100984.94
2022-10-04T20:22:59.765Z,100982.38
2022-10-04T20:26:02.199Z,100985.09
2022-10-04T20:28:43.777Z,100976.56
2022-10-04T20:31:15.013Z,100976.56
2022-10-04T20:33:51.305Z,100975.81
2022-10-04T20:36:54.549Z,100981.25
2022-10-04T20:40:03.089Z,100978.00
2022-10-04T20:42:34.854Z,100966.84
2022-10-04T20:45:08.213Z,100970.66
2022-10-04T20:47:57.556Z,100961.00
2022-10-04T20:50:50.905Z,100953.50
2022-10-04T20:53:22.836Z,100953.94
2022-10-04T20:55:57.168Z,100945.69
2022-10-04T20:58:31.587Z,100962.06
2022-10-04T21:01:10.965Z,100956.59
2022-10-04T21:03:40.596Z,100951.94
2022-10-04T21:06:14.728Z,100951.81
2022-10-04T21:08:44.255Z,100947.94
2022-10-04T21:11:20.817Z,100940.53
2022-10-04T21:13:55.424Z,100944.75
2022-10-04T21:16:53.491Z,100943.03
2022-10-04T21:19:48.730Z,100945.88
2022-10-04T21:22:42.427Z,100948.59
2022-10-04T21:25:33.890Z,100938.25
2022-10-04T21:28:32.545Z,100940.16
2022-10-04T21:31:06.403Z,100958.59
2022-10-04T21:33:37.008Z,100969.97
2022-10-04T21:36:07.573Z,100966.69
2022-10-04T21:38:39.699Z,100962.16
2022-10-04T21:41:09.523Z,100964.81
2022-10-04T21:43:40.078Z,100956.81
2022-10-04T21:46:09.831Z,100955.94
2022-10-04T21:48:39.406Z,100956.69
2022-10-04T21:51:09.049Z,100965.31
2022-10-04T21:53:41.194Z,100953.03
2022-10-04T21:56:10.742Z,100952.31
2022-10-04T21:58:40.313Z,100947.81
2022-10-04T22:01:10.079Z,100944.09
2022-10-04T22:03:39.659Z,100950.19
2022-10-04T22:06:09.330Z,100951.03
2022-10-04T22:08:42.972Z,100953.63
2022-10-04T22:11:12.685Z,100960.53
2022-10-04T22:13:42.614Z,100965.72
2022-10-04T22:16:12.200Z,100970.84
2022-10-04T22:18:41.856Z,100967.41
2022-10-04T22:21:11.492Z,100962.22
2022-10-04T22:23:45.555Z,100950.63
2022-10-04T22:26:16.377Z,100951.38
2022-10-04T22:28:47.781Z,100945.03
2022-10-04T22:31:19.286Z,100933.53
2022-10-04T22:33:50.561Z,100935.22
2022-10-04T22:36:22.686Z,100936.09
2022-10-04T22:38:59.928Z,100938.75
2022-10-04T22:41:31.169Z,100936.25
2022-10-04T22:44:02.732Z,100935.44
2022-10-04T22:46:36.360Z,100936.28
2022-10-04T22:49:11.740Z,100944.09
2022-10-04T22:51:42.809Z,100945.81
2022-10-04T22:54:17.346Z,100948.47
2022-10-04T22:56:47.488Z,100950.19
2022-10-04T22:59:19.780Z,100937.88
2022-10-04T23:01:50.483Z,100945.75
2022-10-04T23:04:24.879Z,100931.56
2022-10-04T23:06:55.262Z,100941.16
2022-10-04T23:09:27.343Z,100937.59
2022-10-04T23:11:56.883Z,100932.22
2022-10-04T23:14:26.521Z,100925.06
2022-10-04T23:16:56.139Z,100929.28
2022-10-04T23:19:25.708Z,100924.88
2022-10-04T23:21:55.312Z,100927.44
2022-10-04T23:24:27.429Z,100925.63
2022-10-04T23:26:58.379Z,100921.13
2022-10-04T23:29:29.697Z,100922.75
2022-10-04T23:31:59.767Z,100927.06
2022-10-04T23:34:31.911Z,100931.59
2022-10-04T23:37:01.720Z,100928.94
2022-10-04T23:39:36.116Z,100924.53
2022-10-04T23:42:16.110Z,100928.94
2022-10-04T23:44:45.786Z,100924.63
2022-10-04T23:47:18.081Z,100923.75
2022-10-04T23:49:48.413Z,100921.19
2022-10-04T23:52:22.979Z,100921.28
2022-10-04T23:54:56.693Z,100914.28
2022-10-04T23:57:27.989Z,100915.22
2022-10-04T23:59:57.568Z,100918.72
